createdAt,value
2018-11-25T00:02:17.158Z,4.90
2018-11-25T00:04:45.623Z,4.80
2018-11-25T00:07:14.079Z,4.80
2018-11-25T00:09:42.528Z,4.80
2018-11-25T00:12:11.015Z,4.70
2018-11-25T00:14:39.475Z,4.80
2018-11-25T00:17:07.938Z,4.90
2018-11-25T00:19:36.479Z,4.90
2018-11-25T00:22:05.105Z,4.90
2018-11-25T00:24:33.616Z,4.90
2018-11-25T00:27:02.067Z,4.90
2018-11-25T00:29:30.567Z,4.90
2018-11-25T00:31:59.020Z,4.90
2018-11-25T00:34:27.788Z,4.90
2018-11-25T00:36:56.250Z,5.00
2018-11-25T00:39:24.707Z,5.00
2018-11-25T00:41:53.153Z,4.90
2018-11-25T00:44:21.624Z,4.90
2018-11-25T00:46:50.088Z,4.90
2018-11-25T00:49:18.552Z,5.00
2018-11-25T00:51:47.018Z,5.00
2018-11-25T00:54:15.468Z,5.00
2018-11-25T00:56:43.941Z,4.90
2018-11-25T00:59:12.395Z,4.90
2018-11-25T01:01:40.859Z,5.00
2018-11-25T01:04:09.312Z,5.00
2018-11-25T01:06:37.759Z,4.90
2018-11-25T01:09:08.620Z,5.00
2018-11-25T01:11:37.192Z,4.90
2018-11-25T01:14:05.865Z,5.00
2018-11-25T01:16:34.330Z,5.00
2018-11-25T01:19:02.792Z,5.00
2018-11-25T01:21:31.282Z,5.00
2018-11-25T01:23:59.723Z,5.00
2018-11-25T01:26:28.178Z,5.00
2018-11-25T01:28:56.634Z,5.00
2018-11-25T01:31:25.092Z,5.00
2018-11-25T01:33:53.548Z,5.00
2018-11-25T01:36:22.024Z,4.90
2018-11-25T01:38:50.478Z,4.90
2018-11-25T01:41:18.931Z,4.90
2018-11-25T01:43:47.407Z,5.00
2018-11-25T01:46:15.852Z,5.00
2018-11-25T01:48:44.293Z,5.00
2018-11-25T01:51:12.755Z,5.00
2018-11-25T01:53:41.209Z,5.10
2018-11-25T01:56:09.663Z,5.10
2018-11-25T01:58:38.127Z,5.00
2018-11-25T02:01:06.639Z,5.00
2018-11-25T02:03:35.091Z,5.10
2018-11-25T02:06:03.563Z,5.10
2018-11-25T02:08:32.076Z,5.10
2018-11-25T02:11:00.539Z,5.10
2018-11-25T02:13:28.991Z,5.10
2018-11-25T02:15:57.444Z,5.20
2018-11-25T02:18:25.891Z,5.10
2018-11-25T02:20:55.929Z,5.10
2018-11-25T02:23:24.447Z,5.10
2018-11-25T02:25:52.892Z,5.10
2018-11-25T02:28:21.339Z,5.10
2018-11-25T02:30:49.815Z,5.10
2018-11-25T02:33:18.281Z,5.10
2018-11-25T02:35:46.755Z,5.10
2018-11-25T02:38:15.212Z,5.10
2018-11-25T02:40:43.667Z,5.10
2018-11-25T02:43:12.127Z,5.10
2018-11-25T02:45:40.588Z,5.10
2018-11-25T02:48:09.035Z,5.00
2018-11-25T02:50:37.521Z,5.00
2018-11-25T02:53:07.608Z,5.00
2018-11-25T02:55:36.079Z,5.00
2018-11-25T02:58:04.806Z,5.00
2018-11-25T03:00:33.403Z,5.00
2018-11-25T03:03:01.875Z,5.00
2018-11-25T03:05:32.945Z,5.00
2018-11-25T03:08:01.391Z,5.00
2018-11-25T03:10:29.899Z,5.10
2018-11-25T03:12:58.355Z,5.10
2018-11-25T03:15:26.839Z,5.10
2018-11-25T03:17:55.305Z,5.20
2018-11-25T03:20:23.760Z,5.20
2018-11-25T03:22:52.218Z,5.20
2018-11-25T03:25:21.243Z,5.20
2018-11-25T03:27:49.711Z,5.20
2018-11-25T03:30:19.268Z,5.20
2018-11-25T03:32:51.587Z,5.20
2018-11-25T03:35:20.115Z,5.20
2018-11-25T03:37:48.575Z,5.20
2018-11-25T03:40:18.723Z,5.20
2018-11-25T03:42:47.201Z,5.20
2018-11-25T03:45:17.541Z,5.20
2018-11-25T03:47:46.289Z,5.10
2018-11-25T03:50:15.513Z,5.20
2018-11-25T03:52:44.035Z,5.20
2018-11-25T03:55:15.243Z,5.20
2018-11-25T03:57:43.784Z,5.20
2018-11-25T04:00:19.247Z,5.20
2018-11-25T04:02:47.999Z,5.20
2018-11-25T04:05:17.099Z,5.20
2018-11-25T04:07:45.556Z,5.30
2018-11-25T04:10:15.013Z,5.30
2018-11-25T04:12:43.488Z,5.30
2018-11-25T04:15:13.991Z,5.30
2018-11-25T04:17:42.479Z,5.30
2018-11-25T04:22:55.956Z,5.20
2018-11-25T04:25:24.406Z,5.30
2018-11-25T04:27:52.866Z,5.20
2018-11-25T04:30:21.360Z,5.30
2018-11-25T04:32:50.670Z,5.30
2018-11-25T04:35:19.228Z,5.30
2018-11-25T04:37:47.696Z,5.30
2018-11-25T04:40:18.235Z,5.30
2018-11-25T04:42:46.691Z,5.30
2018-11-25T04:45:15.971Z,5.30
2018-11-25T04:47:45.035Z,5.40
2018-11-25T04:50:15.588Z,5.40
2018-11-25T04:52:44.068Z,5.40
2018-11-25T04:55:12.612Z,5.40
2018-11-25T04:57:41.177Z,5.40
2018-11-25T05:00:13.753Z,5.40
2018-11-25T05:02:42.247Z,5.40
2018-11-25T05:05:13.824Z,5.40
2018-11-25T05:07:42.304Z,5.40
2018-11-25T05:10:12.666Z,5.30
2018-11-25T05:12:41.290Z,5.40
2018-11-25T05:15:11.445Z,5.40
2018-11-25T05:17:39.923Z,5.40
2018-11-25T05:20:09.784Z,5.30
2018-11-25T05:22:38.280Z,5.40
2018-11-25T05:25:09.000Z,5.40
2018-11-25T05:27:37.472Z,5.30
2018-11-25T05:30:09.931Z,5.30
2018-11-25T05:32:38.434Z,5.30
2018-11-25T05:35:08.641Z,5.30
2018-11-25T05:37:37.220Z,5.30
2018-11-25T05:40:06.808Z,5.30
2018-11-25T05:42:35.272Z,5.30
2018-11-25T05:45:04.460Z,5.30
2018-11-25T05:47:33.064Z,5.40
2018-11-25T05:50:01.539Z,5.30
2018-11-25T05:52:30.047Z,5.30
2018-11-25T05:54:58.543Z,5.20
2018-11-25T05:57:27.010Z,5.20
2018-11-25T05:59:55.464Z,5.20
2018-11-25T06:02:23.958Z,5.20
2018-11-25T06:04:52.431Z,5.30
2018-11-25T06:07:20.920Z,5.30
2018-11-25T06:09:49.392Z,5.20
2018-11-25T06:12:17.863Z,5.20
2018-11-25T06:14:46.333Z,5.20
2018-11-25T06:17:14.875Z,5.30
2018-11-25T06:19:43.327Z,5.20
2018-11-25T06:22:11.802Z,5.30
2018-11-25T06:24:40.246Z,5.20
2018-11-25T06:27:08.727Z,5.20
2018-11-25T06:29:37.187Z,5.30
2018-11-25T06:32:05.752Z,5.30
2018-11-25T06:34:34.215Z,5.30
2018-11-25T06:37:02.679Z,5.30
2018-11-25T06:39:31.124Z,5.30
2018-11-25T06:41:59.581Z,5.30
2018-11-25T06:44:28.019Z,5.30
2018-11-25T06:46:56.515Z,5.30
2018-11-25T06:49:24.960Z,5.40
2018-11-25T06:51:53.411Z,5.30
2018-11-25T06:54:21.859Z,5.30
2018-11-25T06:56:50.318Z,5.40
2018-11-25T06:59:18.819Z,5.30
2018-11-25T07:01:47.274Z,5.40
2018-11-25T07:04:15.814Z,5.40
2018-11-25T07:06:44.339Z,5.40
2018-11-25T07:09:12.819Z,5.50
2018-11-25T07:11:41.287Z,5.50
2018-11-25T07:14:09.764Z,5.60
2018-11-25T07:16:38.243Z,5.60
2018-11-25T07:19:06.796Z,5.60
2018-11-25T07:21:35.248Z,5.70
2018-11-25T07:24:03.703Z,5.70
2018-11-25T07:26:32.192Z,5.70
2018-11-25T07:29:00.687Z,5.70
2018-11-25T07:31:29.149Z,5.70
2018-11-25T07:33:57.607Z,5.70
2018-11-25T07:36:26.059Z,5.70
2018-11-25T07:38:54.571Z,5.70
2018-11-25T07:41:23.031Z,5.70
2018-11-25T07:43:51.467Z,5.70
2018-11-25T07:46:19.931Z,5.70
2018-11-25T07:48:48.378Z,5.80
2018-11-25T07:51:16.825Z,5.80
2018-11-25T07:53:45.280Z,5.80
2018-11-25T07:56:13.725Z,5.80
2018-11-25T07:58:42.175Z,5.80
2018-11-25T08:01:10.632Z,5.80
2018-11-25T08:03:39.088Z,5.90
2018-11-25T08:06:07.543Z,5.90
2018-11-25T08:08:36.009Z,5.90
2018-11-25T08:11:04.480Z,5.90
2018-11-25T08:13:32.945Z,5.90
2018-11-25T08:16:01.395Z,5.90
2018-11-25T08:18:29.857Z,5.90
2018-11-25T08:20:58.303Z,5.90
2018-11-25T08:23:26.759Z,5.90
2018-11-25T08:25:55.330Z,5.90
2018-11-25T08:28:23.767Z,6.00
2018-11-25T08:30:52.223Z,6.00
2018-11-25T08:33:20.682Z,6.00
2018-11-25T08:35:49.135Z,6.00
2018-11-25T08:38:17.584Z,6.00
2018-11-25T08:40:46.039Z,6.00
2018-11-25T08:43:14.496Z,6.00
2018-11-25T08:45:42.946Z,6.00
2018-11-25T08:48:11.697Z,6.00
2018-11-25T08:50:40.666Z,6.00
2018-11-25T08:53:09.216Z,6.00
2018-11-25T08:55:38.770Z,6.00
2018-11-25T08:58:07.235Z,6.10
2018-11-25T09:00:35.679Z,6.10
2018-11-25T09:03:04.950Z,6.10
2018-11-25T09:05:35.219Z,6.10
2018-11-25T09:08:03.716Z,6.20
2018-11-25T09:10:33.087Z,6.30
2018-11-25T09:13:02.158Z,6.40
2018-11-25T09:15:31.411Z,6.40
2018-11-25T09:18:00.188Z,6.50
2018-11-25T09:20:30.235Z,6.60
2018-11-25T09:22:58.816Z,6.60
2018-11-25T09:25:29.315Z,6.70
2018-11-25T09:27:58.859Z,6.70
2018-11-25T09:30:28.410Z,6.80
2018-11-25T09:32:56.887Z,6.80
2018-11-25T09:35:26.083Z,6.80
2018-11-25T09:37:54.557Z,6.80
2018-11-25T09:40:24.327Z,6.90
2018-11-25T09:42:52.896Z,6.90
2018-11-25T09:45:21.477Z,7.00
2018-11-25T09:47:50.394Z,7.00
2018-11-25T09:50:20.686Z,7.10
2018-11-25T09:52:49.207Z,7.10
2018-11-25T09:55:22.443Z,7.20
2018-11-25T09:57:53.852Z,7.20
2018-11-25T10:00:24.677Z,7.20
2018-11-25T10:02:53.251Z,7.30
2018-11-25T10:05:21.759Z,7.50
2018-11-25T10:07:50.280Z,7.40
2018-11-25T10:10:20.959Z,7.40
2018-11-25T10:12:49.460Z,7.40
2018-11-25T10:15:19.095Z,7.30
2018-11-25T10:17:48.459Z,7.30
2018-11-25T10:20:20.072Z,7.30
2018-11-25T10:22:48.583Z,7.30
2018-11-25T10:25:17.414Z,7.40
2018-11-25T10:27:45.936Z,7.40
2018-11-25T10:30:16.402Z,7.40
2018-11-25T10:32:45.561Z,7.50
2018-11-25T10:35:14.059Z,7.50
2018-11-25T10:37:42.519Z,7.50
2018-11-25T10:40:19.561Z,7.50
2018-11-25T10:42:48.055Z,7.50
2018-11-25T10:45:27.152Z,7.50
2018-11-25T10:47:56.203Z,7.40
2018-11-25T10:50:24.712Z,7.50
2018-11-25T10:52:53.195Z,7.40
2018-11-25T10:55:22.404Z,7.50
2018-11-25T10:57:51.746Z,7.50
2018-11-25T11:00:28.515Z,7.50
2018-11-25T11:03:02.382Z,7.60
2018-11-25T11:05:36.264Z,7.60
2018-11-25T11:08:04.820Z,7.60
2018-11-25T11:10:33.351Z,7.70
2018-11-25T11:13:01.949Z,7.70
2018-11-25T11:15:30.421Z,7.70
2018-11-25T11:17:58.883Z,7.80
2018-11-25T11:20:27.363Z,7.80
2018-11-25T11:22:55.823Z,7.80
2018-11-25T11:25:24.287Z,7.80
2018-11-25T11:27:52.780Z,7.90
2018-11-25T11:30:21.259Z,7.90
2018-11-25T11:32:50.791Z,7.80
2018-11-25T11:35:19.303Z,7.90
2018-11-25T11:37:47.777Z,7.90
2018-11-25T11:40:16.300Z,7.90
2018-11-25T11:42:44.775Z,7.90
2018-11-25T11:45:14.343Z,7.80
2018-11-25T11:47:43.640Z,7.70
2018-11-25T11:50:14.290Z,7.80
2018-11-25T11:52:42.763Z,7.70
2018-11-25T11:55:13.295Z,7.70
2018-11-25T11:57:42.163Z,7.60
2018-11-25T12:00:16.155Z,7.60
2018-11-25T12:02:44.641Z,7.50
2018-11-25T12:05:13.139Z,7.50
2018-11-25T12:07:41.611Z,7.50
2018-11-25T12:10:11.724Z,7.50
2018-11-25T12:12:40.264Z,7.50
2018-11-25T12:15:19.424Z,7.50
2018-11-25T12:17:47.923Z,7.50
2018-11-25T12:20:16.404Z,7.50
2018-11-25T12:22:45.145Z,7.50
2018-11-25T12:25:15.012Z,7.40
2018-11-25T12:27:43.521Z,7.40
2018-11-25T12:30:14.274Z,7.40
2018-11-25T12:32:43.490Z,7.40
2018-11-25T12:35:12.923Z,7.40
2018-11-25T12:37:41.391Z,7.40
2018-11-25T12:40:12.071Z,7.40
2018-11-25T12:42:41.120Z,7.50
2018-11-25T12:45:13.118Z,7.50
2018-11-25T12:47:41.592Z,7.50
2018-11-25T12:50:13.567Z,7.50
2018-11-25T12:52:42.054Z,7.50
2018-11-25T12:55:12.859Z,7.60
2018-11-25T12:57:41.327Z,7.60
2018-11-25T13:00:21.783Z,7.60
2018-11-25T13:02:50.248Z,7.60
2018-11-25T13:05:18.819Z,7.50
2018-11-25T13:07:47.283Z,7.50
2018-11-25T13:10:15.891Z,7.50
2018-11-25T13:12:44.379Z,7.50
2018-11-25T13:15:12.864Z,7.40
2018-11-25T13:17:41.325Z,7.40
2018-11-25T13:20:11.697Z,7.40
2018-11-25T13:22:40.679Z,7.30
2018-11-25T13:25:11.908Z,7.30
2018-11-25T13:27:40.360Z,7.30
2018-11-25T13:30:17.063Z,7.20
2018-11-25T13:32:45.766Z,7.30
2018-11-25T13:35:14.950Z,7.20
2018-11-25T13:37:43.443Z,7.20
2018-11-25T13:40:13.204Z,7.20
2018-11-25T13:42:41.671Z,7.20
2018-11-25T13:45:10.660Z,7.20
2018-11-25T13:47:39.379Z,7.20
2018-11-25T13:50:09.202Z,7.20
2018-11-25T13:52:37.657Z,7.20
2018-11-25T13:55:09.559Z,7.20
2018-11-25T13:57:38.023Z,7.20
2018-11-25T14:00:14.028Z,7.10
2018-11-25T14:02:42.487Z,7.20
2018-11-25T14:05:11.100Z,7.10
2018-11-25T14:07:39.552Z,7.10
2018-11-25T14:10:13.567Z,7.20
2018-11-25T14:12:42.017Z,7.20
2018-11-25T14:15:11.264Z,7.10
2018-11-25T14:17:39.732Z,7.10
2018-11-25T14:20:10.098Z,7.10
2018-11-25T14:22:38.599Z,7.20
2018-11-25T14:25:10.128Z,7.20
2018-11-25T14:27:38.624Z,7.20
2018-11-25T14:30:13.397Z,7.20
2018-11-25T14:32:39.792Z,7.20
2018-11-25T14:35:10.359Z,7.20
2018-11-25T14:37:38.824Z,7.10
2018-11-25T14:40:09.980Z,7.10
2018-11-25T14:42:38.596Z,7.10
2018-11-25T14:45:11.087Z,7.10
2018-11-25T14:47:39.571Z,7.10
2018-11-25T14:50:12.491Z,7.00
2018-11-25T14:52:41.701Z,7.00
2018-11-25T14:55:11.616Z,7.00
2018-11-25T14:57:40.479Z,7.00
2018-11-25T15:00:15.688Z,7.00
2018-11-25T15:02:45.401Z,7.00
2018-11-25T15:05:22.915Z,7.00
2018-11-25T15:07:51.544Z,6.90
2018-11-25T15:10:20.099Z,6.90
2018-11-25T15:12:49.383Z,6.90
2018-11-25T15:15:18.004Z,6.80
2018-11-25T15:17:46.548Z,6.80
2018-11-25T15:20:15.360Z,6.80
2018-11-25T15:22:45.426Z,6.80
2018-11-25T15:25:22.239Z,6.80
2018-11-25T15:27:50.726Z,6.80
2018-11-25T15:30:19.186Z,6.80
2018-11-25T15:32:47.651Z,6.80
2018-11-25T15:35:16.151Z,6.80
2018-11-25T15:37:46.423Z,6.80
2018-11-25T15:40:22.491Z,6.80
2018-11-25T15:42:50.991Z,6.80
2018-11-25T15:45:19.462Z,6.80
2018-11-25T15:47:50.588Z,6.70
2018-11-25T15:50:25.520Z,6.70
2018-11-25T15:52:54.307Z,6.70
2018-11-25T15:55:22.879Z,6.70
2018-11-25T15:57:51.749Z,6.70
2018-11-25T16:00:21.212Z,6.60
2018-11-25T16:02:49.677Z,6.60
2018-11-25T16:05:20.833Z,6.60
2018-11-25T16:07:49.338Z,6.60
2018-11-25T16:10:17.800Z,6.60
2018-11-25T16:12:47.635Z,6.60
2018-11-25T16:15:17.398Z,6.60
2018-11-25T16:17:45.885Z,6.60
2018-11-25T16:20:17.138Z,6.60
2018-11-25T16:22:46.199Z,6.60
2018-11-25T16:25:17.648Z,6.60
2018-11-25T16:27:46.651Z,6.60
2018-11-25T16:30:15.176Z,6.60
2018-11-25T16:32:43.623Z,6.60
2018-11-25T16:35:12.220Z,6.70
2018-11-25T16:37:41.623Z,6.60
2018-11-25T16:40:13.989Z,6.60
2018-11-25T16:42:42.463Z,6.60
2018-11-25T16:45:15.263Z,6.50
2018-11-25T16:47:43.779Z,6.50
2018-11-25T16:50:24.508Z,6.50
2018-11-25T16:52:45.140Z,6.50
2018-11-25T16:55:15.181Z,6.50
2018-11-25T16:57:44.386Z,6.50
2018-11-25T17:00:14.972Z,6.60
2018-11-25T17:02:43.457Z,6.60
2018-11-25T17:05:13.872Z,6.60
2018-11-25T17:07:42.599Z,6.60
2018-11-25T17:10:11.474Z,6.60
2018-11-25T17:12:39.940Z,6.50
2018-11-25T17:15:13.015Z,6.50
2018-11-25T17:17:41.463Z,6.60
2018-11-25T17:20:10.272Z,6.50
2018-11-25T17:22:38.746Z,6.60
2018-11-25T17:25:08.969Z,6.60
2018-11-25T17:27:37.444Z,6.60
2018-11-25T17:30:14.551Z,6.60
2018-11-25T17:32:43.991Z,6.60
2018-11-25T17:35:22.128Z,6.60
2018-11-25T17:37:50.580Z,6.60
2018-11-25T17:40:19.059Z,6.60
2018-11-25T17:42:47.570Z,6.60
2018-11-25T17:45:16.148Z,6.60
2018-11-25T17:47:44.611Z,6.50
2018-11-25T17:50:15.664Z,6.50
2018-11-25T17:52:44.213Z,6.50
2018-11-25T17:55:13.772Z,6.50
2018-11-25T17:57:42.653Z,6.50
2018-11-25T18:01:16.348Z,6.50
2018-11-25T18:03:44.808Z,6.50
2018-11-25T18:06:13.285Z,6.60
2018-11-25T18:08:41.742Z,6.60
2018-11-25T18:11:10.211Z,6.60
2018-11-25T18:13:40.403Z,6.50
2018-11-25T18:16:10.526Z,6.50
2018-11-25T18:18:44.036Z,6.50
2018-11-25T18:21:14.759Z,6.50
2018-11-25T18:23:43.211Z,6.50
2018-11-25T18:26:11.749Z,6.50
2018-11-25T18:28:40.236Z,6.50
2018-11-25T18:31:09.706Z,6.50
2018-11-25T18:33:38.192Z,6.50
2018-11-25T18:36:07.804Z,6.50
2018-11-25T18:38:36.255Z,6.40
2018-11-25T18:41:04.855Z,6.40
2018-11-25T18:43:33.367Z,6.40
2018-11-25T18:46:01.859Z,6.40
2018-11-25T18:48:31.521Z,6.30
2018-11-25T18:50:59.979Z,6.40
2018-11-25T18:53:28.464Z,6.40
2018-11-25T18:55:56.928Z,6.40
2018-11-25T18:58:25.384Z,6.30
2018-11-25T19:01:00.286Z,6.30
2018-11-25T19:03:28.748Z,6.30
2018-11-25T19:05:57.214Z,6.40
2018-11-25T19:08:25.672Z,6.40
2018-11-25T19:10:54.131Z,6.50
2018-11-25T19:13:22.591Z,6.50
2018-11-25T19:15:51.052Z,6.50
2018-11-25T19:18:19.647Z,6.50
2018-11-25T19:20:48.128Z,6.50
2018-11-25T19:23:16.596Z,6.50
2018-11-25T19:25:45.047Z,6.50
2018-11-25T19:28:13.507Z,6.50
2018-11-25T19:30:41.959Z,6.50
2018-11-25T19:33:10.693Z,6.50
2018-11-25T19:35:39.147Z,6.50
2018-11-25T19:38:08.544Z,6.50
2018-11-25T19:40:37.031Z,6.50
2018-11-25T19:43:06.532Z,6.40
2018-11-25T19:45:35.005Z,6.40
2018-11-25T19:48:03.479Z,6.50
2018-11-25T19:50:34.241Z,6.40
2018-11-25T19:53:02.732Z,6.40
2018-11-25T19:55:31.325Z,6.40
2018-11-25T19:57:59.812Z,6.40
2018-11-25T20:00:28.347Z,6.40
2018-11-25T20:02:56.819Z,6.40
2018-11-25T20:05:25.331Z,6.40
2018-11-25T20:07:53.803Z,6.40
2018-11-25T20:10:23.727Z,6.40
2018-11-25T20:12:53.891Z,6.40
2018-11-25T20:15:22.559Z,6.40
2018-11-25T20:17:54.442Z,6.40
2018-11-25T20:20:21.354Z,6.40
2018-11-25T20:22:50.263Z,6.40
2018-11-25T20:25:19.230Z,6.40
2018-11-25T20:27:50.743Z,6.40
2018-11-25T20:30:28.550Z,6.50
2018-11-25T20:33:02.376Z,6.40
2018-11-25T20:35:31.107Z,6.40
2018-11-25T20:38:04.984Z,6.40
2018-11-25T20:40:33.631Z,6.40
2018-11-25T20:43:02.108Z,6.40
2018-11-25T20:45:39.084Z,6.40
2018-11-25T20:48:04.616Z,6.40
2018-11-25T20:50:33.109Z,6.40
2018-11-25T20:53:06.971Z,6.40
2018-11-25T20:55:35.687Z,6.40
2018-11-25T20:58:04.203Z,6.40
2018-11-25T21:00:32.799Z,6.40
2018-11-25T21:03:01.252Z,6.50
2018-11-25T21:05:29.728Z,6.40
2018-11-25T21:07:58.192Z,6.40
2018-11-25T21:10:26.709Z,6.40
2018-11-25T21:12:55.699Z,6.40
2018-11-25T21:15:24.170Z,6.30
2018-11-25T21:17:52.636Z,6.40
2018-11-25T21:20:22.679Z,6.30
2018-11-25T21:22:51.138Z,6.30
2018-11-25T21:25:20.623Z,6.30
2018-11-25T21:27:49.098Z,6.30
2018-11-25T21:30:19.724Z,6.30
2018-11-25T21:32:49.460Z,6.30
2018-11-25T21:35:17.940Z,6.30
2018-11-25T21:37:46.415Z,6.30
2018-11-25T21:40:21.170Z,6.30
2018-11-25T21:42:49.641Z,6.30
2018-11-25T21:45:19.256Z,6.30
2018-11-25T21:47:48.231Z,6.30
2018-11-25T21:50:21.837Z,6.30
2018-11-25T21:52:50.294Z,6.30
2018-11-25T21:55:19.181Z,6.20
2018-11-25T21:57:47.619Z,6.30
2018-11-25T22:00:18.534Z,6.10
2018-11-25T22:02:47.223Z,6.10
2018-11-25T22:05:15.895Z,6.10
2018-11-25T22:07:44.433Z,6.10
2018-11-25T22:10:15.536Z,6.10
2018-11-25T22:12:44.427Z,6.00
2018-11-25T22:15:14.212Z,6.00
2018-11-25T22:17:42.754Z,5.90
2018-11-25T22:20:12.111Z,6.00
2018-11-25T22:22:40.598Z,6.00
2018-11-25T22:25:12.027Z,5.90
2018-11-25T22:27:40.491Z,5.90
2018-11-25T22:30:10.815Z,5.90
2018-11-25T22:32:39.330Z,5.80
2018-11-25T22:35:10.796Z,5.80
2018-11-25T22:37:39.251Z,5.80
2018-11-25T22:40:10.041Z,5.70
2018-11-25T22:42:39.071Z,5.70
2018-11-25T22:45:09.164Z,5.70
2018-11-25T22:47:37.652Z,5.70
2018-11-25T22:50:09.425Z,5.60
2018-11-25T22:52:37.933Z,5.70
2018-11-25T22:55:11.428Z,5.70
2018-11-25T22:57:39.955Z,5.70
2018-11-25T23:00:19.876Z,5.60
2018-11-25T23:02:48.355Z,5.60
2018-11-25T23:05:27.999Z,5.60
2018-11-25T23:07:56.472Z,5.70
2018-11-25T23:10:24.963Z,5.60
2018-11-25T23:12:53.460Z,5.60
2018-11-25T23:15:22.012Z,5.60
2018-11-25T23:17:50.463Z,5.70
2018-11-25T23:20:18.928Z,5.70
2018-11-25T23:22:47.395Z,5.60
2018-11-25T23:25:15.863Z,5.70
2018-11-25T23:27:44.316Z,5.70
2018-11-25T23:30:12.889Z,5.60
2018-11-25T23:32:41.332Z,5.70
2018-11-25T23:35:18.244Z,5.70
2018-11-25T23:37:46.719Z,5.60
2018-11-25T23:40:15.193Z,5.60
2018-11-25T23:42:43.709Z,5.60
2018-11-25T23:45:13.411Z,5.70
2018-11-25T23:47:41.921Z,5.60
2018-11-25T23:50:11.472Z,5.70
2018-11-25T23:52:40.090Z,5.70
2018-11-25T23:55:09.995Z,5.70
2018-11-25T23:57:38.524Z,5.70
